sensor_id;sensor_type;location;lat;lon;timestamp;P1;durP1;ratioP1;P2;durP2;ratioP2
8285;SDS011;4181;43.416;24.598;2022-12-07T00:01:26;24.97;;;17.13;;
8285;SDS011;4181;43.416;24.598;2022-12-07T00:03:53;29.53;;;17.77;;
8285;SDS011;4181;43.416;24.598;2022-12-07T00:06:22;26.43;;;17.33;;
8285;SDS011;4181;43.416;24.598;2022-12-07T00:08:48;25.63;;;17.63;;
8285;SDS011;4181;43.416;24.598;2022-12-07T00:11:19;26.97;;;19.13;;
8285;SDS011;4181;43.416;24.598;2022-12-07T00:13:46;32.63;;;18.63;;
8285;SDS011;4181;43.416;24.598;2022-12-07T00:16:16;30.07;;;18.77;;
8285;SDS011;4181;43.416;24.598;2022-12-07T00:18:43;31.70;;;19.70;;
8285;SDS011;4181;43.416;24.598;2022-12-07T00:21:13;33.00;;;20.83;;
8285;SDS011;4181;43.416;24.598;2022-12-07T00:23:41;31.17;;;19.90;;
8285;SDS011;4181;43.416;24.598;2022-12-07T00:26:09;33.03;;;20.80;;
8285;SDS011;4181;43.416;24.598;2022-12-07T00:28:36;30.67;;;21.03;;
8285;SDS011;4181;43.416;24.598;2022-12-07T00:31:09;32.90;;;21.87;;
8285;SDS011;4181;43.416;24.598;2022-12-07T00:33:36;30.30;;;19.23;;
8285;SDS011;4181;43.416;24.598;2022-12-07T00:36:03;34.40;;;21.53;;
8285;SDS011;4181;43.416;24.598;2022-12-07T00:38:32;31.77;;;20.00;;
8285;SDS011;4181;43.416;24.598;2022-12-07T00:41:00;34.13;;;22.03;;
8285;SDS011;4181;43.416;24.598;2022-12-07T00:43:28;32.63;;;20.87;;
8285;SDS011;4181;43.416;24.598;2022-12-07T00:45:53;37.17;;;21.17;;
8285;SDS011;4181;43.416;24.598;2022-12-07T00:48:20;33.90;;;20.43;;
8285;SDS011;4181;43.416;24.598;2022-12-07T00:50:46;32.57;;;20.47;;
8285;SDS011;4181;43.416;24.598;2022-12-07T00:53:12;35.93;;;20.47;;
8285;SDS011;4181;43.416;24.598;2022-12-07T00:55:38;36.67;;;20.50;;
8285;SDS011;4181;43.416;24.598;2022-12-07T00:58:04;34.50;;;19.67;;
8285;SDS011;4181;43.416;24.598;2022-12-07T01:00:30;31.80;;;19.13;;
8285;SDS011;4181;43.416;24.598;2022-12-07T01:02:56;29.70;;;19.37;;
8285;SDS011;4181;43.416;24.598;2022-12-07T01:05:21;29.00;;;17.87;;
8285;SDS011;4181;43.416;24.598;2022-12-07T01:07:47;30.77;;;18.77;;
8285;SDS011;4181;43.416;24.598;2022-12-07T01:10:13;34.57;;;18.60;;
8285;SDS011;4181;43.416;24.598;2022-12-07T01:12:39;29.57;;;18.37;;
8285;SDS011;4181;43.416;24.598;2022-12-07T01:15:04;32.87;;;18.27;;
8285;SDS011;4181;43.416;24.598;2022-12-07T01:17:31;29.00;;;17.80;;
8285;SDS011;4181;43.416;24.598;2022-12-07T01:19:56;37.70;;;19.77;;
8285;SDS011;4181;43.416;24.598;2022-12-07T01:22:23;32.97;;;18.67;;
8285;SDS011;4181;43.416;24.598;2022-12-07T01:24:48;33.30;;;19.73;;
8285;SDS011;4181;43.416;24.598;2022-12-07T01:27:14;35.93;;;19.20;;
8285;SDS011;4181;43.416;24.598;2022-12-07T01:29:40;36.30;;;19.57;;
8285;SDS011;4181;43.416;24.598;2022-12-07T01:32:05;35.37;;;20.60;;
8285;SDS011;4181;43.416;24.598;2022-12-07T01:34:31;32.83;;;18.63;;
8285;SDS011;4181;43.416;24.598;2022-12-07T01:36:56;32.93;;;18.17;;
8285;SDS011;4181;43.416;24.598;2022-12-07T01:39:22;32.73;;;19.17;;
8285;SDS011;4181;43.416;24.598;2022-12-07T01:41:48;33.57;;;19.50;;
8285;SDS011;4181;43.416;24.598;2022-12-07T01:46:47;33.10;;;19.03;;
8285;SDS011;4181;43.416;24.598;2022-12-07T01:49:26;33.90;;;19.50;;
8285;SDS011;4181;43.416;24.598;2022-12-07T01:51:58;32.80;;;18.67;;
8285;SDS011;4181;43.416;24.598;2022-12-07T01:54:28;32.03;;;19.17;;
8285;SDS011;4181;43.416;24.598;2022-12-07T01:56:54;33.67;;;19.40;;
8285;SDS011;4181;43.416;24.598;2022-12-07T01:59:22;28.53;;;17.80;;
8285;SDS011;4181;43.416;24.598;2022-12-07T02:01:51;31.87;;;18.60;;
8285;SDS011;4181;43.416;24.598;2022-12-07T02:04:18;31.90;;;17.73;;
8285;SDS011;4181;43.416;24.598;2022-12-07T02:06:44;33.93;;;18.63;;
8285;SDS011;4181;43.416;24.598;2022-12-07T02:09:11;29.57;;;17.93;;
8285;SDS011;4181;43.416;24.598;2022-12-07T02:11:37;30.23;;;17.90;;
8285;SDS011;4181;43.416;24.598;2022-12-07T02:14:03;30.80;;;17.30;;
8285;SDS011;4181;43.416;24.598;2022-12-07T02:19:37;30.17;;;18.57;;
8285;SDS011;4181;43.416;24.598;2022-12-07T02:25:13;34.10;;;22.30;;
8285;SDS011;4181;43.416;24.598;2022-12-07T02:30:30;37.63;;;22.07;;
8285;SDS011;4181;43.416;24.598;2022-12-07T02:32:59;34.93;;;21.10;;
8285;SDS011;4181;43.416;24.598;2022-12-07T02:35:30;31.20;;;18.70;;
8285;SDS011;4181;43.416;24.598;2022-12-07T02:40:41;35.83;;;19.80;;
8285;SDS011;4181;43.416;24.598;2022-12-07T02:43:08;32.33;;;17.43;;
8285;SDS011;4181;43.416;24.598;2022-12-07T02:45:40;29.93;;;17.67;;
8285;SDS011;4181;43.416;24.598;2022-12-07T02:48:08;30.20;;;17.03;;
8285;SDS011;4181;43.416;24.598;2022-12-07T02:50:36;31.93;;;20.50;;
8285;SDS011;4181;43.416;24.598;2022-12-07T02:53:02;32.53;;;19.70;;
8285;SDS011;4181;43.416;24.598;2022-12-07T02:55:29;33.63;;;19.53;;
8285;SDS011;4181;43.416;24.598;2022-12-07T02:58:06;29.97;;;19.30;;
8285;SDS011;4181;43.416;24.598;2022-12-07T03:00:52;28.83;;;18.07;;
8285;SDS011;4181;43.416;24.598;2022-12-07T03:03:28;31.17;;;18.93;;
8285;SDS011;4181;43.416;24.598;2022-12-07T03:06:06;51.93;;;32.33;;
8285;SDS011;4181;43.416;24.598;2022-12-07T03:09:03;67.20;;;41.73;;
8285;SDS011;4181;43.416;24.598;2022-12-07T03:12:01;42.60;;;27.70;;
8285;SDS011;4181;43.416;24.598;2022-12-07T03:14:45;41.13;;;27.40;;
8285;SDS011;4181;43.416;24.598;2022-12-07T03:17:22;42.07;;;27.10;;
8285;SDS011;4181;43.416;24.598;2022-12-07T03:19:51;24.33;;;17.00;;
8285;SDS011;4181;43.416;24.598;2022-12-07T03:22:21;23.07;;;15.00;;
8285;SDS011;4181;43.416;24.598;2022-12-07T03:24:55;24.00;;;16.03;;
8285;SDS011;4181;43.416;24.598;2022-12-07T03:27:26;22.23;;;14.77;;
8285;SDS011;4181;43.416;24.598;2022-12-07T03:32:32;24.47;;;15.97;;
8285;SDS011;4181;43.416;24.598;2022-12-07T03:35:17;24.07;;;16.17;;
8285;SDS011;4181;43.416;24.598;2022-12-07T03:37:50;23.70;;;15.67;;
8285;SDS011;4181;43.416;24.598;2022-12-07T03:42:55;23.63;;;14.00;;
8285;SDS011;4181;43.416;24.598;2022-12-07T03:45:26;22.10;;;14.30;;
8285;SDS011;4181;43.416;24.598;2022-12-07T03:48:37;22.33;;;14.57;;
8285;SDS011;4181;43.416;24.598;2022-12-07T03:53:54;23.13;;;14.53;;
8285;SDS011;4181;43.416;24.598;2022-12-07T03:56:35;24.00;;;15.67;;
8285;SDS011;4181;43.416;24.598;2022-12-07T03:59:02;23.30;;;15.30;;
8285;SDS011;4181;43.416;24.598;2022-12-07T04:01:27;22.93;;;15.03;;
8285;SDS011;4181;43.416;24.598;2022-12-07T04:03:53;22.33;;;14.77;;
8285;SDS011;4181;43.416;24.598;2022-12-07T04:06:18;22.43;;;14.57;;
8285;SDS011;4181;43.416;24.598;2022-12-07T04:08:44;25.23;;;15.30;;
8285;SDS011;4181;43.416;24.598;2022-12-07T04:11:09;23.70;;;15.13;;
8285;SDS011;4181;43.416;24.598;2022-12-07T04:13:35;23.50;;;14.43;;
8285;SDS011;4181;43.416;24.598;2022-12-07T04:16:20;22.90;;;13.70;;
8285;SDS011;4181;43.416;24.598;2022-12-07T04:18:46;24.47;;;14.57;;
8285;SDS011;4181;43.416;24.598;2022-12-07T04:21:11;21.97;;;14.03;;
8285;SDS011;4181;43.416;24.598;2022-12-07T04:23:37;18.73;;;13.03;;
8285;SDS011;4181;43.416;24.598;2022-12-07T04:26:02;19.93;;;13.73;;
8285;SDS011;4181;43.416;24.598;2022-12-07T04:28:28;19.83;;;13.10;;
8285;SDS011;4181;43.416;24.598;2022-12-07T04:30:53;19.10;;;12.10;;
8285;SDS011;4181;43.416;24.598;2022-12-07T04:33:18;17.03;;;12.03;;
8285;SDS011;4181;43.416;24.598;2022-12-07T04:35:44;18.13;;;11.17;;
8285;SDS011;4181;43.416;24.598;2022-12-07T04:38:12;16.80;;;10.53;;
8285;SDS011;4181;43.416;24.598;2022-12-07T04:40:38;14.33;;;11.10;;
8285;SDS011;4181;43.416;24.598;2022-12-07T04:43:03;11.37;;;9.57;;
8285;SDS011;4181;43.416;24.598;2022-12-07T04:45:29;13.97;;;9.83;;
8285;SDS011;4181;43.416;24.598;2022-12-07T04:47:55;13.87;;;10.17;;
8285;SDS011;4181;43.416;24.598;2022-12-07T04:50:20;20.70;;;13.50;;
8285;SDS011;4181;43.416;24.598;2022-12-07T04:52:46;17.03;;;11.90;;
8285;SDS011;4181;43.416;24.598;2022-12-07T04:55:11;14.37;;;10.93;;
8285;SDS011;4181;43.416;24.598;2022-12-07T04:57:36;14.87;;;11.40;;
8285;SDS011;4181;43.416;24.598;2022-12-07T05:00:02;14.07;;;10.13;;
8285;SDS011;4181;43.416;24.598;2022-12-07T05:02:28;18.70;;;10.80;;
8285;SDS011;4181;43.416;24.598;2022-12-07T05:04:53;15.50;;;11.37;;
8285;SDS011;4181;43.416;24.598;2022-12-07T05:07:18;19.77;;;11.30;;
8285;SDS011;4181;43.416;24.598;2022-12-07T05:09:44;16.90;;;12.23;;
8285;SDS011;4181;43.416;24.598;2022-12-07T05:12:09;18.00;;;13.43;;
8285;SDS011;4181;43.416;24.598;2022-12-07T05:14:35;19.80;;;14.43;;
8285;SDS011;4181;43.416;24.598;2022-12-07T05:17:00;21.40;;;14.57;;
8285;SDS011;4181;43.416;24.598;2022-12-07T05:19:27;18.37;;;13.47;;
8285;SDS011;4181;43.416;24.598;2022-12-07T05:21:53;18.70;;;12.20;;
8285;SDS011;4181;43.416;24.598;2022-12-07T05:24:18;18.67;;;12.80;;
8285;SDS011;4181;43.416;24.598;2022-12-07T05:26:44;17.30;;;12.67;;
8285;SDS011;4181;43.416;24.598;2022-12-07T05:29:14;14.50;;;10.03;;
8285;SDS011;4181;43.416;24.598;2022-12-07T05:31:41;16.27;;;11.53;;
8285;SDS011;4181;43.416;24.598;2022-12-07T05:34:07;15.80;;;10.60;;
8285;SDS011;4181;43.416;24.598;2022-12-07T05:36:33;16.53;;;11.03;;
8285;SDS011;4181;43.416;24.598;2022-12-07T05:38:59;13.90;;;10.37;;
8285;SDS011;4181;43.416;24.598;2022-12-07T05:41:25;16.33;;;11.33;;
8285;SDS011;4181;43.416;24.598;2022-12-07T05:44:09;17.10;;;11.90;;
8285;SDS011;4181;43.416;24.598;2022-12-07T05:46:34;17.47;;;13.07;;
8285;SDS011;4181;43.416;24.598;2022-12-07T05:49:00;21.13;;;14.37;;
8285;SDS011;4181;43.416;24.598;2022-12-07T05:51:26;20.47;;;15.17;;
8285;SDS011;4181;43.416;24.598;2022-12-07T05:53:51;19.00;;;14.90;;
8285;SDS011;4181;43.416;24.598;2022-12-07T05:56:17;31.00;;;17.33;;
8285;SDS011;4181;43.416;24.598;2022-12-07T05:58:42;35.13;;;24.83;;
8285;SDS011;4181;43.416;24.598;2022-12-07T06:01:26;51.50;;;39.83;;
8285;SDS011;4181;43.416;24.598;2022-12-07T06:03:52;50.80;;;36.77;;
8285;SDS011;4181;43.416;24.598;2022-12-07T06:06:18;59.43;;;37.10;;
8285;SDS011;4181;43.416;24.598;2022-12-07T06:08:43;66.07;;;37.90;;
8285;SDS011;4181;43.416;24.598;2022-12-07T06:11:09;47.53;;;25.67;;
8285;SDS011;4181;43.416;24.598;2022-12-07T06:13:53;22.70;;;16.63;;
8285;SDS011;4181;43.416;24.598;2022-12-07T06:16:18;20.00;;;14.07;;
8285;SDS011;4181;43.416;24.598;2022-12-07T06:18:44;30.67;;;19.67;;
8285;SDS011;4181;43.416;24.598;2022-12-07T06:21:10;68.60;;;32.50;;
8285;SDS011;4181;43.416;24.598;2022-12-07T06:23:36;99.13;;;42.70;;
8285;SDS011;4181;43.416;24.598;2022-12-07T06:26:01;129.20;;;50.50;;
8285;SDS011;4181;43.416;24.598;2022-12-07T06:28:27;102.07;;;47.07;;
8285;SDS011;4181;43.416;24.598;2022-12-07T06:31:00;108.97;;;45.93;;
8285;SDS011;4181;43.416;24.598;2022-12-07T06:33:26;74.70;;;39.03;;
8285;SDS011;4181;43.416;24.598;2022-12-07T06:35:52;75.73;;;39.73;;
8285;SDS011;4181;43.416;24.598;2022-12-07T06:38:18;68.53;;;36.63;;
8285;SDS011;4181;43.416;24.598;2022-12-07T06:40:43;57.37;;;34.33;;
8285;SDS011;4181;43.416;24.598;2022-12-07T06:43:09;50.53;;;30.77;;
8285;SDS011;4181;43.416;24.598;2022-12-07T06:45:34;44.30;;;31.57;;
8285;SDS011;4181;43.416;24.598;2022-12-07T06:48:00;33.73;;;24.13;;
8285;SDS011;4181;43.416;24.598;2022-12-07T06:50:25;29.37;;;20.27;;
8285;SDS011;4181;43.416;24.598;2022-12-07T06:52:51;24.40;;;19.17;;
8285;SDS011;4181;43.416;24.598;2022-12-07T06:55:17;35.13;;;23.70;;
8285;SDS011;4181;43.416;24.598;2022-12-07T06:57:42;29.00;;;21.33;;
8285;SDS011;4181;43.416;24.598;2022-12-07T07:00:08;28.27;;;21.07;;
8285;SDS011;4181;43.416;24.598;2022-12-07T07:02:34;29.87;;;19.60;;
8285;SDS011;4181;43.416;24.598;2022-12-07T07:05:00;31.57;;;21.13;;
8285;SDS011;4181;43.416;24.598;2022-12-07T07:07:25;38.90;;;25.93;;
8285;SDS011;4181;43.416;24.598;2022-12-07T07:09:51;36.33;;;24.67;;
8285;SDS011;4181;43.416;24.598;2022-12-07T07:12:16;30.20;;;22.80;;
8285;SDS011;4181;43.416;24.598;2022-12-07T07:14:41;38.00;;;24.40;;
8285;SDS011;4181;43.416;24.598;2022-12-07T07:17:08;31.80;;;22.27;;
8285;SDS011;4181;43.416;24.598;2022-12-07T07:19:34;34.07;;;22.60;;
8285;SDS011;4181;43.416;24.598;2022-12-07T07:21:59;28.67;;;20.90;;
8285;SDS011;4181;43.416;24.598;2022-12-07T07:24:25;29.43;;;21.63;;
8285;SDS011;4181;43.416;24.598;2022-12-07T07:26:50;30.53;;;20.47;;
8285;SDS011;4181;43.416;24.598;2022-12-07T07:29:15;30.43;;;19.17;;
8285;SDS011;4181;43.416;24.598;2022-12-07T07:31:41;26.57;;;18.40;;
8285;SDS011;4181;43.416;24.598;2022-12-07T07:34:06;25.90;;;18.53;;
8285;SDS011;4181;43.416;24.598;2022-12-07T07:36:32;28.87;;;19.77;;
8285;SDS011;4181;43.416;24.598;2022-12-07T07:38:58;27.07;;;18.03;;
8285;SDS011;4181;43.416;24.598;2022-12-07T07:41:23;31.37;;;20.60;;
8285;SDS011;4181;43.416;24.598;2022-12-07T07:43:49;28.53;;;19.33;;
8285;SDS011;4181;43.416;24.598;2022-12-07T07:46:14;25.47;;;17.93;;
8285;SDS011;4181;43.416;24.598;2022-12-07T07:48:39;25.03;;;17.77;;
8285;SDS011;4181;43.416;24.598;2022-12-07T07:51:08;27.13;;;18.57;;
8285;SDS011;4181;43.416;24.598;2022-12-07T07:53:34;28.20;;;18.80;;
8285;SDS011;4181;43.416;24.598;2022-12-07T07:55:59;26.57;;;18.17;;
8285;SDS011;4181;43.416;24.598;2022-12-07T07:58:25;25.47;;;19.17;;
8285;SDS011;4181;43.416;24.598;2022-12-07T08:00:50;25.00;;;17.70;;
8285;SDS011;4181;43.416;24.598;2022-12-07T08:03:16;26.57;;;18.37;;
8285;SDS011;4181;43.416;24.598;2022-12-07T08:05:42;23.40;;;17.13;;
8285;SDS011;4181;43.416;24.598;2022-12-07T08:08:10;27.63;;;18.17;;
8285;SDS011;4181;43.416;24.598;2022-12-07T08:10:48;23.80;;;17.30;;
8285;SDS011;4181;43.416;24.598;2022-12-07T08:13:15;29.13;;;20.23;;
8285;SDS011;4181;43.416;24.598;2022-12-07T08:15:46;24.33;;;18.13;;
8285;SDS011;4181;43.416;24.598;2022-12-07T08:18:13;28.27;;;20.27;;
8285;SDS011;4181;43.416;24.598;2022-12-07T08:20:40;25.37;;;19.03;;
8285;SDS011;4181;43.416;24.598;2022-12-07T08:23:07;27.70;;;20.53;;
8285;SDS011;4181;43.416;24.598;2022-12-07T08:25:34;24.40;;;18.80;;
8285;SDS011;4181;43.416;24.598;2022-12-07T08:28:00;25.50;;;18.13;;
8285;SDS011;4181;43.416;24.598;2022-12-07T08:30:26;24.53;;;18.87;;
8285;SDS011;4181;43.416;24.598;2022-12-07T08:32:52;21.77;;;16.40;;
8285;SDS011;4181;43.416;24.598;2022-12-07T08:35:17;22.47;;;16.20;;
8285;SDS011;4181;43.416;24.598;2022-12-07T08:37:43;21.67;;;15.50;;
8285;SDS011;4181;43.416;24.598;2022-12-07T08:40:09;19.83;;;14.70;;
8285;SDS011;4181;43.416;24.598;2022-12-07T08:42:36;18.23;;;13.13;;
8285;SDS011;4181;43.416;24.598;2022-12-07T08:45:12;17.80;;;13.60;;
8285;SDS011;4181;43.416;24.598;2022-12-07T08:47:49;17.43;;;12.20;;
8285;SDS011;4181;43.416;24.598;2022-12-07T08:50:33;13.93;;;11.47;;
8285;SDS011;4181;43.416;24.598;2022-12-07T08:53:00;13.23;;;11.83;;
8285;SDS011;4181;43.416;24.598;2022-12-07T08:55:27;19.33;;;13.07;;
8285;SDS011;4181;43.416;24.598;2022-12-07T08:57:54;13.93;;;11.67;;
8285;SDS011;4181;43.416;24.598;2022-12-07T09:00:20;14.50;;;12.80;;
8285;SDS011;4181;43.416;24.598;2022-12-07T09:02:45;14.83;;;12.37;;
8285;SDS011;4181;43.416;24.598;2022-12-07T09:05:11;15.70;;;13.47;;
8285;SDS011;4181;43.416;24.598;2022-12-07T09:07:39;14.17;;;11.97;;
8285;SDS011;4181;43.416;24.598;2022-12-07T09:10:07;12.57;;;11.17;;
8285;SDS011;4181;43.416;24.598;2022-12-07T09:12:40;13.47;;;11.50;;
8285;SDS011;4181;43.416;24.598;2022-12-07T09:15:05;15.70;;;12.10;;
8285;SDS011;4181;43.416;24.598;2022-12-07T09:17:33;14.97;;;12.73;;
8285;SDS011;4181;43.416;24.598;2022-12-07T09:19:59;19.50;;;13.97;;
8285;SDS011;4181;43.416;24.598;2022-12-07T09:22:28;20.13;;;14.50;;
8285;SDS011;4181;43.416;24.598;2022-12-07T09:24:54;16.00;;;10.83;;
8285;SDS011;4181;43.416;24.598;2022-12-07T09:27:20;15.00;;;12.87;;
8285;SDS011;4181;43.416;24.598;2022-12-07T09:29:45;19.47;;;14.67;;
8285;SDS011;4181;43.416;24.598;2022-12-07T09:32:11;27.23;;;18.33;;
8285;SDS011;4181;43.416;24.598;2022-12-07T09:34:36;15.33;;;12.70;;
8285;SDS011;4181;43.416;24.598;2022-12-07T09:37:02;16.77;;;13.43;;
8285;SDS011;4181;43.416;24.598;2022-12-07T09:39:28;17.70;;;12.07;;
8285;SDS011;4181;43.416;24.598;2022-12-07T09:41:54;20.23;;;14.27;;
8285;SDS011;4181;43.416;24.598;2022-12-07T09:44:23;17.93;;;13.97;;
8285;SDS011;4181;43.416;24.598;2022-12-07T09:46:50;26.83;;;15.93;;
8285;SDS011;4181;43.416;24.598;2022-12-07T09:49:19;22.63;;;15.40;;
8285;SDS011;4181;43.416;24.598;2022-12-07T09:51:46;30.50;;;18.30;;
8285;SDS011;4181;43.416;24.598;2022-12-07T09:54:14;21.07;;;14.53;;
8285;SDS011;4181;43.416;24.598;2022-12-07T09:56:41;16.47;;;13.37;;
8285;SDS011;4181;43.416;24.598;2022-12-07T09:59:17;19.60;;;13.80;;
8285;SDS011;4181;43.416;24.598;2022-12-07T10:01:44;18.67;;;13.77;;
8285;SDS011;4181;43.416;24.598;2022-12-07T10:04:14;19.33;;;15.13;;
8285;SDS011;4181;43.416;24.598;2022-12-07T10:06:40;17.53;;;12.97;;
8285;SDS011;4181;43.416;24.598;2022-12-07T10:09:10;20.87;;;13.87;;
8285;SDS011;4181;43.416;24.598;2022-12-07T10:14:34;21.60;;;13.43;;
8285;SDS011;4181;43.416;24.598;2022-12-07T10:17:01;19.43;;;13.97;;
8285;SDS011;4181;43.416;24.598;2022-12-07T10:19:32;16.03;;;12.30;;
8285;SDS011;4181;43.416;24.598;2022-12-07T10:22:19;20.13;;;12.57;;
8285;SDS011;4181;43.416;24.598;2022-12-07T10:24:46;17.03;;;13.10;;
8285;SDS011;4181;43.416;24.598;2022-12-07T10:27:25;15.80;;;13.30;;
8285;SDS011;4181;43.416;24.598;2022-12-07T10:29:56;19.27;;;14.03;;
8285;SDS011;4181;43.416;24.598;2022-12-07T10:32:33;21.50;;;13.40;;
8285;SDS011;4181;43.416;24.598;2022-12-07T10:37:44;16.13;;;12.67;;
8285;SDS011;4181;43.416;24.598;2022-12-07T10:40:24;17.27;;;12.97;;
8285;SDS011;4181;43.416;24.598;2022-12-07T10:46:04;25.23;;;16.80;;
8285;SDS011;4181;43.416;24.598;2022-12-07T10:51:12;25.23;;;18.47;;
8285;SDS011;4181;43.416;24.598;2022-12-07T10:54:10;25.77;;;19.20;;
8285;SDS011;4181;43.416;24.598;2022-12-07T10:59:39;28.67;;;21.07;;
8285;SDS011;4181;43.416;24.598;2022-12-07T11:11:09;25.00;;;18.10;;
8285;SDS011;4181;43.416;24.598;2022-12-07T11:19:16;23.80;;;16.00;;
8285;SDS011;4181;43.416;24.598;2022-12-07T11:22:00;24.83;;;16.60;;
8285;SDS011;4181;43.416;24.598;2022-12-07T11:25:14;24.77;;;18.23;;
8285;SDS011;4181;43.416;24.598;2022-12-07T11:31:12;26.40;;;16.77;;
8285;SDS011;4181;43.416;24.598;2022-12-07T11:41:52;20.47;;;15.90;;
8285;SDS011;4181;43.416;24.598;2022-12-07T11:50:21;21.63;;;15.37;;
8285;SDS011;4181;43.416;24.598;2022-12-07T12:06:42;22.07;;;15.93;;
8285;SDS011;4181;43.416;24.598;2022-12-07T12:15:03;28.00;;;20.07;;
8285;SDS011;4181;43.416;24.598;2022-12-07T12:23:24;25.20;;;17.67;;
8285;SDS011;4181;43.416;24.598;2022-12-07T12:26:23;23.10;;;18.13;;
8285;SDS011;4181;43.416;24.598;2022-12-07T12:28:58;21.97;;;16.03;;
8285;SDS011;4181;43.416;24.598;2022-12-07T12:33:55;28.67;;;19.70;;
8285;SDS011;4181;43.416;24.598;2022-12-07T12:36:26;46.87;;;27.47;;
8285;SDS011;4181;43.416;24.598;2022-12-07T12:39:11;43.60;;;26.10;;
8285;SDS011;4181;43.416;24.598;2022-12-07T12:46:46;30.57;;;21.20;;
8285;SDS011;4181;43.416;24.598;2022-12-07T12:51:41;30.50;;;21.87;;
8285;SDS011;4181;43.416;24.598;2022-12-07T12:54:11;25.10;;;16.93;;
8285;SDS011;4181;43.416;24.598;2022-12-07T12:59:38;27.80;;;18.10;;
8285;SDS011;4181;43.416;24.598;2022-12-07T13:02:26;34.47;;;24.70;;
8285;SDS011;4181;43.416;24.598;2022-12-07T13:15:46;32.00;;;20.57;;
8285;SDS011;4181;43.416;24.598;2022-12-07T13:18:38;36.07;;;22.20;;
8285;SDS011;4181;43.416;24.598;2022-12-07T13:23:36;38.67;;;22.97;;
8285;SDS011;4181;43.416;24.598;2022-12-07T13:28:46;30.93;;;21.50;;
8285;SDS011;4181;43.416;24.598;2022-12-07T13:34:01;33.53;;;23.27;;
8285;SDS011;4181;43.416;24.598;2022-12-07T13:36:46;36.90;;;23.63;;
8285;SDS011;4181;43.416;24.598;2022-12-07T13:41:52;37.27;;;24.20;;
8285;SDS011;4181;43.416;24.598;2022-12-07T13:44:20;30.03;;;21.13;;
8285;SDS011;4181;43.416;24.598;2022-12-07T13:49:16;29.97;;;21.17;;
8285;SDS011;4181;43.416;24.598;2022-12-07T13:51:42;35.97;;;21.40;;
8285;SDS011;4181;43.416;24.598;2022-12-07T13:54:09;30.97;;;21.60;;
8285;SDS011;4181;43.416;24.598;2022-12-07T13:56:36;32.07;;;19.20;;
8285;SDS011;4181;43.416;24.598;2022-12-07T13:59:14;34.40;;;22.63;;
8285;SDS011;4181;43.416;24.598;2022-12-07T14:01:49;31.77;;;21.70;;
8285;SDS011;4181;43.416;24.598;2022-12-07T14:04:37;33.67;;;22.23;;
8285;SDS011;4181;43.416;24.598;2022-12-07T14:07:19;34.20;;;24.13;;
8285;SDS011;4181;43.416;24.598;2022-12-07T14:10:01;35.90;;;22.00;;
8285;SDS011;4181;43.416;24.598;2022-12-07T14:12:29;31.40;;;21.40;;
8285;SDS011;4181;43.416;24.598;2022-12-07T14:14:56;35.43;;;21.80;;
8285;SDS011;4181;43.416;24.598;2022-12-07T14:17:24;26.87;;;18.93;;
8285;SDS011;4181;43.416;24.598;2022-12-07T14:24:46;46.60;;;27.40;;
8285;SDS011;4181;43.416;24.598;2022-12-07T14:27:22;60.07;;;30.77;;
8285;SDS011;4181;43.416;24.598;2022-12-07T14:29:50;81.70;;;38.97;;
8285;SDS011;4181;43.416;24.598;2022-12-07T14:32:27;42.17;;;25.90;;
8285;SDS011;4181;43.416;24.598;2022-12-07T14:37:35;35.40;;;23.40;;
8285;SDS011;4181;43.416;24.598;2022-12-07T14:40:02;33.20;;;22.07;;
8285;SDS011;4181;43.416;24.598;2022-12-07T14:42:29;37.40;;;26.73;;
8285;SDS011;4181;43.416;24.598;2022-12-07T14:44:56;44.10;;;28.83;;
8285;SDS011;4181;43.416;24.598;2022-12-07T14:47:23;47.77;;;28.17;;
8285;SDS011;4181;43.416;24.598;2022-12-07T14:49:49;40.97;;;25.30;;
8285;SDS011;4181;43.416;24.598;2022-12-07T14:52:22;37.57;;;23.90;;
8285;SDS011;4181;43.416;24.598;2022-12-07T14:54:52;37.70;;;25.47;;
8285;SDS011;4181;43.416;24.598;2022-12-07T14:57:17;39.67;;;23.77;;
8285;SDS011;4181;43.416;24.598;2022-12-07T14:59:43;35.63;;;23.87;;
8285;SDS011;4181;43.416;24.598;2022-12-07T15:02:09;46.27;;;29.50;;
8285;SDS011;4181;43.416;24.598;2022-12-07T15:04:37;43.17;;;26.93;;
8285;SDS011;4181;43.416;24.598;2022-12-07T15:07:03;33.43;;;24.83;;
8285;SDS011;4181;43.416;24.598;2022-12-07T15:09:30;43.47;;;30.23;;
8285;SDS011;4181;43.416;24.598;2022-12-07T15:11:56;43.47;;;28.07;;
8285;SDS011;4181;43.416;24.598;2022-12-07T15:14:21;72.43;;;48.57;;
8285;SDS011;4181;43.416;24.598;2022-12-07T15:16:47;52.37;;;32.60;;
8285;SDS011;4181;43.416;24.598;2022-12-07T15:19:20;47.23;;;27.23;;
8285;SDS011;4181;43.416;24.598;2022-12-07T15:21:51;35.77;;;25.23;;
8285;SDS011;4181;43.416;24.598;2022-12-07T15:24:17;39.70;;;24.63;;
8285;SDS011;4181;43.416;24.598;2022-12-07T15:26:43;38.77;;;25.87;;
8285;SDS011;4181;43.416;24.598;2022-12-07T15:29:09;33.03;;;23.43;;
8285;SDS011;4181;43.416;24.598;2022-12-07T15:31:35;37.20;;;23.87;;
8285;SDS011;4181;43.416;24.598;2022-12-07T15:34:00;36.43;;;24.60;;
8285;SDS011;4181;43.416;24.598;2022-12-07T15:36:27;33.77;;;23.63;;
8285;SDS011;4181;43.416;24.598;2022-12-07T15:38:53;35.17;;;24.87;;
8285;SDS011;4181;43.416;24.598;2022-12-07T15:41:20;38.93;;;26.80;;
8285;SDS011;4181;43.416;24.598;2022-12-07T15:43:46;34.03;;;23.80;;
8285;SDS011;4181;43.416;24.598;2022-12-07T15:46:36;41.70;;;28.43;;
8285;SDS011;4181;43.416;24.598;2022-12-07T15:49:05;51.23;;;36.43;;
8285;SDS011;4181;43.416;24.598;2022-12-07T15:51:34;52.10;;;33.97;;
8285;SDS011;4181;43.416;24.598;2022-12-07T15:54:00;42.27;;;30.07;;
8285;SDS011;4181;43.416;24.598;2022-12-07T15:56:25;49.33;;;34.63;;
8285;SDS011;4181;43.416;24.598;2022-12-07T15:58:51;56.83;;;38.27;;
8285;SDS011;4181;43.416;24.598;2022-12-07T16:01:17;47.30;;;32.00;;
8285;SDS011;4181;43.416;24.598;2022-12-07T16:03:44;53.23;;;34.37;;
8285;SDS011;4181;43.416;24.598;2022-12-07T16:06:10;119.63;;;71.77;;
8285;SDS011;4181;43.416;24.598;2022-12-07T16:08:36;101.73;;;58.07;;
8285;SDS011;4181;43.416;24.598;2022-12-07T16:11:08;142.77;;;87.67;;
8285;SDS011;4181;43.416;24.598;2022-12-07T16:13:33;85.97;;;56.87;;
8285;SDS011;4181;43.416;24.598;2022-12-07T16:16:07;43.13;;;30.33;;
8285;SDS011;4181;43.416;24.598;2022-12-07T16:18:35;38.00;;;28.07;;
8285;SDS011;4181;43.416;24.598;2022-12-07T16:21:01;52.80;;;37.07;;
8285;SDS011;4181;43.416;24.598;2022-12-07T16:23:27;57.07;;;40.20;;
8285;SDS011;4181;43.416;24.598;2022-12-07T16:25:52;45.57;;;32.70;;
8285;SDS011;4181;43.416;24.598;2022-12-07T16:28:18;50.63;;;39.53;;
8285;SDS011;4181;43.416;24.598;2022-12-07T16:30:43;53.00;;;37.30;;
8285;SDS011;4181;43.416;24.598;2022-12-07T16:33:09;49.23;;;36.23;;
8285;SDS011;4181;43.416;24.598;2022-12-07T16:35:37;68.17;;;44.13;;
8285;SDS011;4181;43.416;24.598;2022-12-07T16:38:05;86.83;;;52.37;;
8285;SDS011;4181;43.416;24.598;2022-12-07T16:40:31;80.90;;;50.03;;
8285;SDS011;4181;43.416;24.598;2022-12-07T16:42:58;118.83;;;78.47;;
8285;SDS011;4181;43.416;24.598;2022-12-07T16:45:23;108.33;;;70.83;;
8285;SDS011;4181;43.416;24.598;2022-12-07T16:47:49;87.50;;;57.80;;
8285;SDS011;4181;43.416;24.598;2022-12-07T16:50:14;76.03;;;51.73;;
8285;SDS011;4181;43.416;24.598;2022-12-07T16:52:40;58.70;;;43.17;;
8285;SDS011;4181;43.416;24.598;2022-12-07T16:55:05;49.67;;;34.40;;
8285;SDS011;4181;43.416;24.598;2022-12-07T16:57:31;44.13;;;29.70;;
8285;SDS011;4181;43.416;24.598;2022-12-07T16:59:56;43.33;;;28.80;;
8285;SDS011;4181;43.416;24.598;2022-12-07T17:02:22;41.23;;;30.20;;